createdAt,value
2023-01-09T04:41:08.928Z,21.77
2023-01-09T04:44:12.178Z,28.58
2023-01-09T04:47:14.627Z,20.92
2023-01-09T04:50:17.501Z,25.85
2023-01-09T04:53:19.962Z,22.75
2023-01-09T04:56:22.750Z,18.40
2023-01-09T04:59:25.289Z,23.73
2023-01-09T05:02:27.991Z,24.77
2023-01-09T05:05:30.639Z,21.80
2023-01-09T05:08:33.873Z,23.02
2023-01-09T05:11:36.472Z,25.05
2023-01-09T05:14:39.216Z,24.67
2023-01-09T05:17:41.697Z,24.98
2023-01-09T05:20:45.087Z,19.87
2023-01-09T05:23:47.422Z,21.73
2023-01-09T05:26:50.111Z,20.30
2023-01-09T05:29:52.883Z,28.42
2023-01-09T05:32:55.650Z,23.00
2023-01-09T05:35:58.070Z,23.00
2023-01-09T05:39:02.659Z,23.73
2023-01-09T05:42:05.242Z,24.45
2023-01-09T05:45:08.733Z,24.12
2023-01-09T05:48:11.174Z,19.42
2023-01-09T05:51:14.268Z,20.42
2023-01-09T05:54:16.766Z,22.33
2023-01-09T05:57:19.812Z,21.80
2023-01-09T06:00:22.512Z,25.02
2023-01-09T06:03:25.325Z,20.42
2023-01-09T06:06:28.203Z,19.37
2023-01-09T06:09:31.465Z,21.25
2023-01-09T06:12:34.291Z,22.00
2023-01-09T06:15:37.105Z,21.42
2023-01-09T06:18:39.598Z,19.33
2023-01-09T06:21:42.347Z,24.48
2023-01-09T06:24:44.981Z,20.57
2023-01-09T06:27:47.678Z,21.30
2023-01-09T06:30:52.225Z,22.63
2023-01-09T06:33:55.041Z,18.02
2023-01-09T06:36:57.731Z,18.80
2023-01-09T06:40:00.365Z,25.20
2023-01-09T06:43:02.792Z,17.60
2023-01-09T06:46:08.093Z,21.93
2023-01-09T06:49:10.692Z,21.10
2023-01-09T06:52:13.947Z,19.48
2023-01-09T06:55:17.741Z,19.73
2023-01-09T06:58:20.598Z,21.20
2023-01-09T07:01:23.072Z,19.95
2023-01-09T07:04:25.980Z,18.70
2023-01-09T07:07:28.655Z,19.90
2023-01-09T07:10:31.615Z,20.15
2023-01-09T07:13:35.272Z,22.58
2023-01-09T07:16:38.210Z,19.83
2023-01-09T07:19:42.084Z,19.47
2023-01-09T07:22:45.727Z,22.20
2023-01-09T07:25:50.830Z,17.80
2023-01-09T07:28:54.576Z,19.50
2023-01-09T07:31:57.304Z,19.23
2023-01-09T07:35:00.350Z,15.30
2023-01-09T07:38:02.887Z,21.27
2023-01-09T07:41:05.808Z,21.37
2023-01-09T07:44:10.927Z,17.85
2023-01-09T07:47:13.812Z,21.52
2023-01-09T07:50:16.451Z,20.37
2023-01-09T07:53:19.650Z,17.17
2023-01-09T07:56:22.873Z,23.08
2023-01-09T08:02:28.579Z,18.02
2023-01-09T08:05:31.311Z,19.85
2023-01-09T08:08:34.416Z,18.55
2023-01-09T08:11:37.198Z,16.20
2023-01-09T08:14:39.635Z,18.65
2023-01-09T08:17:44.479Z,19.87
2023-01-09T08:20:49.776Z,18.60
2023-01-09T08:23:52.799Z,18.25
2023-01-09T08:26:55.222Z,18.15
2023-01-09T08:29:58.119Z,22.70
2023-01-09T08:33:00.623Z,20.17
2023-01-09T08:36:04.047Z,22.60
2023-01-09T08:39:06.459Z,18.50
2023-01-09T08:42:28.012Z,21.63
2023-01-09T08:45:50.915Z,18.83
2023-01-09T08:48:53.813Z,21.75
2023-01-09T08:51:56.185Z,18.20
2023-01-09T08:54:59.060Z,22.30
2023-01-09T08:58:02.003Z,27.77
2023-01-09T09:01:06.502Z,22.83
2023-01-09T09:04:09.273Z,20.33
2023-01-09T09:07:11.933Z,20.67
2023-01-09T09:10:15.232Z,23.75
2023-01-09T09:16:20.300Z,18.30
2023-01-09T09:19:23.367Z,24.08
2023-01-09T09:22:26.664Z,20.25
2023-01-09T09:25:29.482Z,25.02
2023-01-09T09:28:32.224Z,23.77
2023-01-09T09:34:39.277Z,17.83
2023-01-09T09:37:42.417Z,23.12
2023-01-09T09:41:29.136Z,21.98
2023-01-09T09:44:52.690Z,23.67
2023-01-09T09:48:32.860Z,23.48
2023-01-09T09:51:50.609Z,17.83
2023-01-09T09:54:53.218Z,21.33
2023-01-09T09:57:58.405Z,22.05
2023-01-09T10:01:01.983Z,19.73
2023-01-09T10:04:10.743Z,23.23
2023-01-09T10:07:28.339Z,21.55
2023-01-09T10:10:41.009Z,22.20
2023-01-09T10:14:02.926Z,23.08
2023-01-09T10:17:19.020Z,21.05
2023-01-09T10:20:33.485Z,23.55
2023-01-09T10:23:59.441Z,24.55
2023-01-09T10:27:17.340Z,19.98
2023-01-09T10:30:25.955Z,20.35
2023-01-09T10:33:31.446Z,24.92
2023-01-09T10:36:40.491Z,26.05
2023-01-09T10:39:55.612Z,22.85
2023-01-09T10:43:12.245Z,21.42
2023-01-09T10:46:43.809Z,22.30
2023-01-09T10:49:49.698Z,22.23
2023-01-09T10:52:55.363Z,26.45
2023-01-09T10:56:13.335Z,26.45
2023-01-09T10:59:15.720Z,26.60
2023-01-09T11:02:29.334Z,22.23
2023-01-09T11:05:32.921Z,24.48
2023-01-09T11:08:42.082Z,19.87
2023-01-09T11:11:45.432Z,18.58
2023-01-09T11:14:48.273Z,22.50
2023-01-09T11:17:51.503Z,24.12
2023-01-09T11:20:54.340Z,23.85
2023-01-09T11:23:57.478Z,21.03
2023-01-09T11:27:24.150Z,19.42
2023-01-09T11:30:29.288Z,27.42
2023-01-09T11:33:47.926Z,21.02
2023-01-09T11:36:52.920Z,24.85
2023-01-09T11:39:59.342Z,24.50
2023-01-09T11:43:32.751Z,25.37
2023-01-09T11:46:42.456Z,26.40
2023-01-09T11:49:51.316Z,22.58
2023-01-09T11:53:18.310Z,24.50
2023-01-09T11:56:20.978Z,22.15
2023-01-09T11:59:30.413Z,24.00
2023-01-09T12:02:56.209Z,22.02
2023-01-09T12:06:17.459Z,24.42
2023-01-09T12:09:46.315Z,23.73
2023-01-09T12:13:10.921Z,25.37
2023-01-09T12:16:38.669Z,23.33
2023-01-09T12:19:56.471Z,20.37
2023-01-09T12:23:20.506Z,23.05
2023-01-09T12:26:25.344Z,23.42
2023-01-09T12:29:57.205Z,21.40
2023-01-09T12:33:13.894Z,23.52
2023-01-09T12:37:11.577Z,23.70
2023-01-09T12:40:31.371Z,25.50
2023-01-09T12:43:52.453Z,24.52
2023-01-09T12:47:41.114Z,21.33
2023-01-09T12:51:02.016Z,27.62
2023-01-09T12:54:21.934Z,22.83
2023-01-09T12:57:43.003Z,28.45
2023-01-09T13:00:50.885Z,23.27
2023-01-09T13:04:15.363Z,22.55
2023-01-09T13:07:24.325Z,25.45
2023-01-09T13:10:33.162Z,26.23
2023-01-09T13:13:47.234Z,21.37
2023-01-09T13:19:55.373Z,23.95
2023-01-09T13:22:59.595Z,21.23
2023-01-09T13:26:09.483Z,25.10
2023-01-09T13:29:17.178Z,24.40
2023-01-09T13:32:39.422Z,23.70
2023-01-09T13:35:55.971Z,27.10
2023-01-09T13:39:00.737Z,25.77
2023-01-09T13:42:24.394Z,26.75
2023-01-09T13:48:41.643Z,24.48
2023-01-09T13:51:44.189Z,23.38
2023-01-09T13:54:55.980Z,28.10
2023-01-09T13:58:04.866Z,30.23
2023-01-09T14:01:27.943Z,27.48
2023-01-09T14:04:43.351Z,26.12
2023-01-09T14:07:49.190Z,26.70
2023-01-09T14:10:58.171Z,25.62
2023-01-09T14:14:03.966Z,27.35
2023-01-09T14:17:23.005Z,27.55
2023-01-09T14:20:31.216Z,31.37
2023-01-09T14:23:52.098Z,29.92
2023-01-09T14:27:01.387Z,24.40
2023-01-09T14:30:28.315Z,27.17
2023-01-09T14:33:32.700Z,30.20
2023-01-09T14:36:36.509Z,28.20
2023-01-09T14:39:44.840Z,26.00
2023-01-09T14:42:52.907Z,31.12
2023-01-09T14:46:06.176Z,29.37
2023-01-09T14:49:22.575Z,29.50
2023-01-09T14:52:30.451Z,26.62
2023-01-09T14:55:41.921Z,29.37
2023-01-09T14:58:44.482Z,25.90
2023-01-09T15:01:51.520Z,29.65
2023-01-09T15:04:56.864Z,28.87
2023-01-09T15:08:03.730Z,28.83
2023-01-09T15:11:06.175Z,26.58
2023-01-09T15:14:29.983Z,30.33
2023-01-09T15:17:35.873Z,33.35
2023-01-09T15:20:38.634Z,31.00
2023-01-09T15:23:41.067Z,28.38
2023-01-09T15:26:52.525Z,29.67
2023-01-09T15:29:55.313Z,28.30
2023-01-09T15:32:58.131Z,27.17
2023-01-09T15:36:07.048Z,24.90
2023-01-09T15:39:10.354Z,32.72
2023-01-09T15:42:57.572Z,28.05
2023-01-09T15:46:01.290Z,32.53
2023-01-09T15:49:04.070Z,32.13
2023-01-09T15:52:11.976Z,32.80
2023-01-09T15:55:35.217Z,32.50
2023-01-09T15:58:40.618Z,29.67
2023-01-09T16:01:44.824Z,33.90
2023-01-09T16:04:48.884Z,27.45
2023-01-09T16:07:51.890Z,27.80
2023-01-09T16:10:58.488Z,29.35
2023-01-09T16:14:22.830Z,31.08
2023-01-09T16:17:27.156Z,31.12
2023-01-09T16:20:29.494Z,42.67
2023-01-09T16:23:35.272Z,29.07
2023-01-09T16:26:37.680Z,32.30
2023-01-09T16:29:47.148Z,26.75
2023-01-09T16:32:52.727Z,33.08
2023-01-09T16:35:55.708Z,33.92
2023-01-09T16:39:00.729Z,30.98
2023-01-09T16:42:27.672Z,33.95
2023-01-09T16:45:42.284Z,26.45
2023-01-09T16:48:45.239Z,33.75
